createdAt,value
2017-08-29T00:00:04.927Z,62.57
2017-08-29T00:01:04.869Z,62.95
2017-08-29T00:02:04.886Z,62.86
2017-08-29T00:03:04.860Z,62.95
2017-08-29T00:04:04.876Z,62.95
2017-08-29T00:05:04.847Z,63.34
2017-08-29T00:06:04.835Z,62.95
2017-08-29T00:07:04.857Z,62.95
2017-08-29T00:08:04.812Z,63.43
2017-08-29T00:09:04.796Z,62.76
2017-08-29T00:10:04.789Z,63.05
2017-08-29T00:11:04.799Z,63.05
2017-08-29T00:12:04.755Z,63.12
2017-08-29T00:13:04.717Z,63.12
2017-08-29T00:14:04.736Z,62.95
2017-08-29T00:15:04.731Z,63.50
2017-08-29T00:16:04.733Z,63.31
2017-08-29T00:17:04.704Z,62.95
2017-08-29T00:18:04.678Z,63.02
2017-08-29T00:19:04.710Z,62.95
2017-08-29T00:20:04.653Z,63.82
2017-08-29T00:21:04.668Z,63.63
2017-08-29T00:22:04.617Z,63.53
2017-08-29T00:23:04.632Z,63.31
2017-08-29T00:24:04.605Z,63.40
2017-08-29T00:25:04.621Z,63.79
2017-08-29T00:26:04.597Z,63.60
2017-08-29T00:27:04.570Z,63.79
2017-08-29T00:28:04.592Z,63.79
2017-08-29T00:29:04.657Z,63.50
2017-08-29T00:30:04.611Z,64.08
2017-08-29T00:31:04.567Z,64.08
2017-08-29T00:32:04.570Z,63.50
2017-08-29T00:33:04.513Z,63.31
2017-08-29T00:34:04.606Z,64.18
2017-08-29T00:35:04.519Z,64.08
2017-08-29T00:36:04.522Z,64.08
2017-08-29T00:37:04.509Z,64.08
2017-08-29T00:38:04.477Z,63.98
2017-08-29T00:39:04.497Z,63.98
2017-08-29T00:40:04.481Z,64.28
2017-08-29T00:41:04.439Z,64.86
2017-08-29T00:42:04.448Z,64.66
2017-08-29T00:43:04.487Z,64.28
2017-08-29T00:44:04.458Z,65.14
2017-08-29T00:45:04.429Z,65.05
2017-08-29T00:46:04.459Z,64.37
2017-08-29T00:47:04.426Z,64.08
2017-08-29T00:48:04.384Z,64.08
2017-08-29T00:49:04.429Z,64.28
2017-08-29T00:50:04.337Z,64.18
2017-08-29T00:51:04.394Z,63.98
2017-08-29T00:52:04.334Z,64.08
2017-08-29T00:53:04.363Z,64.24
2017-08-29T00:54:04.277Z,64.47
2017-08-29T00:55:04.288Z,63.85
2017-08-29T00:56:04.324Z,64.15
2017-08-29T00:57:04.353Z,63.98
2017-08-29T00:58:04.274Z,64.24
2017-08-29T00:59:04.293Z,64.28
2017-08-29T01:00:04.216Z,64.28
2017-08-29T01:01:04.199Z,64.28
2017-08-29T01:02:04.196Z,64.92
2017-08-29T01:03:04.246Z,64.86
2017-08-29T01:04:04.244Z,65.40
2017-08-29T01:05:04.266Z,64.76
2017-08-29T01:06:04.199Z,64.92
2017-08-29T01:07:04.140Z,64.82
2017-08-29T01:08:04.155Z,64.56
2017-08-29T01:09:04.171Z,64.92
2017-08-29T01:10:04.137Z,64.82
2017-08-29T01:11:04.127Z,64.92
2017-08-29T01:12:04.136Z,64.92
2017-08-29T01:13:04.130Z,64.43
2017-08-29T01:14:04.063Z,64.24
2017-08-29T01:15:04.056Z,65.11
2017-08-29T01:16:04.117Z,64.63
2017-08-29T01:17:04.034Z,65.30
2017-08-29T01:18:04.040Z,65.20
2017-08-29T01:19:04.047Z,65.40
2017-08-29T01:20:04.031Z,65.20
2017-08-29T01:21:04.031Z,65.01
2017-08-29T01:22:04.008Z,65.30
2017-08-29T01:23:03.980Z,65.40
2017-08-29T01:24:03.977Z,65.11
2017-08-29T01:25:03.955Z,64.72
2017-08-29T01:26:03.929Z,64.72
2017-08-29T01:27:03.961Z,64.72
2017-08-29T01:28:03.980Z,64.72
2017-08-29T01:29:03.975Z,65.11
2017-08-29T01:30:03.992Z,65.20
2017-08-29T01:31:03.872Z,65.30
2017-08-29T01:32:03.942Z,65.50
2017-08-29T01:33:03.959Z,65.40
2017-08-29T01:34:03.875Z,65.30
2017-08-29T01:35:03.900Z,65.11
2017-08-29T01:36:03.868Z,65.50
2017-08-29T01:37:03.842Z,65.40
2017-08-29T01:38:03.829Z,64.92
2017-08-29T01:39:03.778Z,65.40
2017-08-29T01:40:03.878Z,65.47
2017-08-29T01:41:03.818Z,65.01
2017-08-29T01:42:03.854Z,65.20
2017-08-29T01:43:03.772Z,64.92
2017-08-29T01:44:03.736Z,65.40
2017-08-29T01:45:03.785Z,64.69
2017-08-29T01:46:03.735Z,65.17
2017-08-29T01:47:03.720Z,65.47
2017-08-29T01:48:03.736Z,65.47
2017-08-29T01:49:03.713Z,65.47
2017-08-29T01:50:03.676Z,65.47
2017-08-29T01:51:03.701Z,65.66
2017-08-29T01:52:03.710Z,64.89
2017-08-29T01:53:03.672Z,65.27
2017-08-29T01:54:03.611Z,65.56
2017-08-29T01:55:03.646Z,65.75
2017-08-29T01:56:03.630Z,65.75
2017-08-29T01:57:03.621Z,65.95
2017-08-29T01:58:03.592Z,65.56
2017-08-29T01:59:03.620Z,65.27
2017-08-29T02:00:03.592Z,65.27
2017-08-29T02:01:03.581Z,65.27
2017-08-29T02:02:03.556Z,65.37
2017-08-29T02:03:03.530Z,66.24
2017-08-29T02:04:03.532Z,65.95
2017-08-29T02:05:03.582Z,65.37
2017-08-29T02:06:03.512Z,65.27
2017-08-29T02:07:03.536Z,66.04
2017-08-29T02:08:03.555Z,66.04
2017-08-29T02:09:03.463Z,66.14
2017-08-29T02:10:03.440Z,66.14
2017-08-29T02:11:03.440Z,65.37
2017-08-29T02:12:03.424Z,66.04
2017-08-29T02:13:03.519Z,65.47
2017-08-29T02:14:03.417Z,65.17
2017-08-29T02:15:03.475Z,66.04
2017-08-29T02:16:03.401Z,66.04
2017-08-29T02:17:03.443Z,66.14
2017-08-29T02:18:03.414Z,65.91
2017-08-29T02:19:03.395Z,66.01
2017-08-29T02:20:03.359Z,65.33
2017-08-29T02:21:03.353Z,65.91
2017-08-29T02:22:03.344Z,66.01
2017-08-29T02:23:03.356Z,65.91
2017-08-29T02:24:03.301Z,66.30
2017-08-29T02:25:03.295Z,66.39
2017-08-29T02:26:03.307Z,65.63
2017-08-29T02:27:03.343Z,66.01
2017-08-29T02:28:03.244Z,65.91
2017-08-29T02:29:03.248Z,66.01
2017-08-29T02:30:03.254Z,66.39
2017-08-29T02:31:03.216Z,66.59
2017-08-29T02:32:03.247Z,66.39
2017-08-29T02:33:03.200Z,66.49
2017-08-29T02:34:03.205Z,66.69
2017-08-29T02:35:03.199Z,66.69
2017-08-29T02:36:03.337Z,66.59
2017-08-29T02:37:03.222Z,66.59
2017-08-29T02:38:03.144Z,66.69
2017-08-29T02:39:03.125Z,66.97
2017-08-29T02:40:03.245Z,66.69
2017-08-29T02:41:03.111Z,66.59
2017-08-29T02:42:03.100Z,66.39
2017-08-29T02:43:03.106Z,66.69
2017-08-29T02:44:03.096Z,66.39
2017-08-29T02:45:03.045Z,66.88
2017-08-29T02:46:03.149Z,66.59
2017-08-29T02:47:03.075Z,67.07
2017-08-29T02:48:03.055Z,66.97
2017-08-29T02:49:03.116Z,66.78
2017-08-29T02:50:03.043Z,66.59
2017-08-29T02:51:03.062Z,67.42
2017-08-29T02:52:03.025Z,67.55
2017-08-29T02:53:03.054Z,67.74
2017-08-29T02:54:02.973Z,67.26
2017-08-29T02:55:02.983Z,67.26
2017-08-29T02:56:02.984Z,67.26
2017-08-29T02:57:02.997Z,67.74
2017-08-29T02:58:02.977Z,67.55
2017-08-29T02:59:02.991Z,68.23
2017-08-29T03:00:02.917Z,68.04
2017-08-29T03:01:02.888Z,68.04
2017-08-29T03:02:02.868Z,68.42
2017-08-29T03:03:02.882Z,67.94
2017-08-29T03:04:02.884Z,68.23
2017-08-29T03:05:02.932Z,69.19
2017-08-29T03:06:02.954Z,68.42
2017-08-29T03:07:02.868Z,68.23
2017-08-29T03:08:02.833Z,68.42
2017-08-29T03:09:02.844Z,68.42
2017-08-29T03:10:02.872Z,68.42
2017-08-29T03:11:02.801Z,68.32
2017-08-29T03:12:02.805Z,68.32
2017-08-29T03:13:02.820Z,68.52
2017-08-29T03:14:02.824Z,68.61
2017-08-29T03:15:02.756Z,68.71
2017-08-29T03:16:02.747Z,69.15
2017-08-29T03:17:02.740Z,68.38
2017-08-29T03:18:02.705Z,68.32
2017-08-29T03:19:02.728Z,68.58
2017-08-29T03:20:02.651Z,69.06
2017-08-29T03:21:02.702Z,68.48
2017-08-29T03:22:02.628Z,68.68
2017-08-29T03:23:02.671Z,68.96
2017-08-29T03:24:02.658Z,69.06
2017-08-29T03:25:02.621Z,69.45
2017-08-29T03:26:02.654Z,69.35
2017-08-29T03:27:02.814Z,69.35
2017-08-29T03:28:02.584Z,69.54
2017-08-29T03:29:02.633Z,68.77
2017-08-29T03:30:02.580Z,69.64
2017-08-29T03:31:02.585Z,69.64
2017-08-29T03:32:02.524Z,69.45
2017-08-29T03:33:02.515Z,68.68
2017-08-29T03:34:02.485Z,69.45
2017-08-29T03:35:02.512Z,69.54
2017-08-29T03:36:02.483Z,69.54
2017-08-29T03:37:02.535Z,69.45
2017-08-29T03:38:02.467Z,70.02
2017-08-29T03:39:02.492Z,69.83
2017-08-29T03:40:02.513Z,69.15
2017-08-29T03:41:02.448Z,69.93
2017-08-29T03:42:02.448Z,69.15
2017-08-29T03:43:02.415Z,69.73
2017-08-29T03:44:02.442Z,69.73
2017-08-29T03:45:02.407Z,69.35
2017-08-29T03:46:02.428Z,69.25
2017-08-29T03:47:02.417Z,69.25
2017-08-29T03:48:02.442Z,69.02
2017-08-29T03:49:02.457Z,68.84
2017-08-29T03:50:02.356Z,68.77
2017-08-29T03:51:02.356Z,68.48
2017-08-29T03:52:02.349Z,68.38
2017-08-29T03:53:02.336Z,68.58
2017-08-29T03:54:02.324Z,68.48
2017-08-29T03:55:02.308Z,68.38
2017-08-29T03:56:02.269Z,68.58
2017-08-29T03:57:02.333Z,68.84
2017-08-29T03:58:02.326Z,68.58
2017-08-29T03:59:02.212Z,68.74
2017-08-29T04:00:02.257Z,69.41
2017-08-29T04:01:02.239Z,69.51
2017-08-29T04:02:02.166Z,69.02
2017-08-29T04:03:02.280Z,68.87
2017-08-29T04:04:02.924Z,68.96
2017-08-29T04:05:02.177Z,69.06
2017-08-29T04:06:02.129Z,69.25
2017-08-29T04:07:02.183Z,69.25
2017-08-29T04:08:02.146Z,69.41
2017-08-29T04:09:02.117Z,69.83
2017-08-29T04:10:02.209Z,69.51
2017-08-29T04:11:02.107Z,69.93
2017-08-29T04:12:02.161Z,69.89
2017-08-29T04:13:02.104Z,69.83
2017-08-29T04:14:02.091Z,69.54
2017-08-29T04:15:02.065Z,69.64
2017-08-29T04:16:02.033Z,69.70
2017-08-29T04:17:02.077Z,69.73
2017-08-29T04:18:01.970Z,69.51
2017-08-29T04:19:02.045Z,69.51
2017-08-29T04:20:01.999Z,69.89
2017-08-29T04:21:01.991Z,69.99
2017-08-29T04:22:01.993Z,70.18
2017-08-29T04:23:01.969Z,70.24
2017-08-29T04:24:02.020Z,70.62
2017-08-29T04:25:01.931Z,70.09
2017-08-29T04:26:01.896Z,70.09
2017-08-29T04:27:01.915Z,70.09
2017-08-29T04:28:01.921Z,70.09
2017-08-29T04:29:01.841Z,70.09
2017-08-29T04:30:01.847Z,70.09
2017-08-29T04:31:01.821Z,69.99
2017-08-29T04:32:01.806Z,70.66
2017-08-29T04:33:01.795Z,70.47
2017-08-29T04:34:01.861Z,70.56
2017-08-29T04:35:01.848Z,70.09
2017-08-29T04:36:01.822Z,70.28
2017-08-29T04:37:01.825Z,70.37
2017-08-29T04:38:01.782Z,70.18
2017-08-29T04:39:01.730Z,70.09
2017-08-29T04:40:01.696Z,70.05
2017-08-29T04:41:01.728Z,70.82
2017-08-29T04:42:01.756Z,70.66
2017-08-29T04:43:01.722Z,70.47
2017-08-29T04:44:01.708Z,70.66
2017-08-29T04:45:01.676Z,70.47
2017-08-29T04:46:01.693Z,70.18
2017-08-29T04:47:01.650Z,70.82
2017-08-29T04:48:01.665Z,70.34
2017-08-29T04:49:01.673Z,70.62
2017-08-29T04:50:01.653Z,70.15
2017-08-29T04:51:01.571Z,70.15
2017-08-29T04:52:01.638Z,70.24
2017-08-29T04:53:01.574Z,70.72
2017-08-29T04:54:01.589Z,70.37
2017-08-29T04:55:01.551Z,70.47
2017-08-29T04:56:01.510Z,70.34
2017-08-29T04:57:01.581Z,70.24
2017-08-29T04:58:01.544Z,70.24
2017-08-29T04:59:01.561Z,70.37
2017-08-29T05:00:01.503Z,70.53
2017-08-29T05:01:01.492Z,70.72
2017-08-29T05:02:01.466Z,71.04
2017-08-29T05:03:01.428Z,70.82
2017-08-29T05:04:01.488Z,70.34
2017-08-29T05:05:01.434Z,70.62
2017-08-29T05:06:01.402Z,70.62
2017-08-29T05:07:01.372Z,70.24
2017-08-29T05:08:01.414Z,70.92
2017-08-29T05:09:01.389Z,71.20
2017-08-29T05:10:01.381Z,71.20
2017-08-29T05:11:01.343Z,71.30
2017-08-29T05:12:01.344Z,71.11
2017-08-29T05:13:01.315Z,71.20
2017-08-29T05:14:01.308Z,71.11
2017-08-29T05:15:01.350Z,71.69
2017-08-29T05:16:01.276Z,71.40
2017-08-29T05:17:01.241Z,71.40
2017-08-29T05:18:01.241Z,71.11
2017-08-29T05:19:01.227Z,71.30
2017-08-29T05:20:01.226Z,71.30
2017-08-29T05:21:01.276Z,71.01
2017-08-29T05:22:01.200Z,71.30
2017-08-29T05:23:01.196Z,71.49
2017-08-29T05:24:01.162Z,71.40
2017-08-29T05:25:01.199Z,71.11
2017-08-29T05:26:01.162Z,71.11
2017-08-29T05:27:01.155Z,71.30
2017-08-29T05:28:01.124Z,71.30
2017-08-29T05:29:01.130Z,71.78
2017-08-29T05:30:01.104Z,71.69
2017-08-29T05:31:01.101Z,71.88
2017-08-29T05:32:01.136Z,72.11
2017-08-29T05:33:01.108Z,72.30
2017-08-29T05:34:01.082Z,72.07
2017-08-29T05:35:01.037Z,72.07
2017-08-29T05:36:01.062Z,72.59
2017-08-29T05:37:01.034Z,71.91
2017-08-29T05:38:01.046Z,72.20
2017-08-29T05:39:01.034Z,72.39
2017-08-29T05:40:00.988Z,72.49
2017-08-29T05:41:01.062Z,72.97
2017-08-29T05:42:00.982Z,72.78
2017-08-29T05:43:00.980Z,72.39
2017-08-29T05:44:00.990Z,72.49
2017-08-29T05:45:00.909Z,72.11
2017-08-29T05:46:00.982Z,71.62
2017-08-29T05:47:01.005Z,71.91
2017-08-29T05:48:01.280Z,72.30
2017-08-29T05:49:00.943Z,72.11
2017-08-29T05:50:02.292Z,72.30
2017-08-29T05:51:01.478Z,72.20
2017-08-29T05:52:00.873Z,72.49
2017-08-29T05:53:00.950Z,72.49
2017-08-29T05:54:00.909Z,72.20
2017-08-29T05:55:00.848Z,71.62
2017-08-29T05:56:00.845Z,72.11
2017-08-29T05:57:00.864Z,72.49
2017-08-29T05:58:00.819Z,72.78
2017-08-29T05:59:00.842Z,72.78
2017-08-29T06:00:00.809Z,72.68
2017-08-29T06:01:00.770Z,72.59
2017-08-29T06:02:00.803Z,72.88
2017-08-29T06:03:00.722Z,72.53
2017-08-29T06:04:00.758Z,72.39
2017-08-29T06:05:00.746Z,72.68
2017-08-29T06:06:00.744Z,73.16
2017-08-29T06:07:00.669Z,72.97
2017-08-29T06:08:00.671Z,73.16
2017-08-29T06:09:00.667Z,73.16
2017-08-29T06:10:00.645Z,73.49
2017-08-29T06:11:00.626Z,72.78
2017-08-29T06:12:00.674Z,72.72
2017-08-29T06:13:00.642Z,73.01
2017-08-29T06:14:00.613Z,73.30
2017-08-29T06:15:00.621Z,73.68
2017-08-29T06:16:00.645Z,73.78
2017-08-29T06:17:00.591Z,73.49
2017-08-29T06:18:00.615Z,72.81
2017-08-29T06:19:00.565Z,72.63
2017-08-29T06:20:00.523Z,73.20
2017-08-29T06:21:00.581Z,73.10
2017-08-29T06:22:00.523Z,73.30
2017-08-29T06:23:00.527Z,72.63
2017-08-29T06:24:00.488Z,73.68
2017-08-29T06:25:00.471Z,73.78
2017-08-29T06:26:00.478Z,73.01
2017-08-29T06:27:00.526Z,73.39
2017-08-29T06:28:00.440Z,73.39
2017-08-29T06:29:01.044Z,73.20
2017-08-29T06:30:00.406Z,73.78
2017-08-29T06:31:00.414Z,73.01
2017-08-29T06:32:00.437Z,73.68
2017-08-29T06:33:00.433Z,73.58
2017-08-29T06:34:00.353Z,73.30
2017-08-29T06:35:00.344Z,72.91
2017-08-29T06:36:00.360Z,72.72
2017-08-29T06:37:00.377Z,72.72
2017-08-29T06:38:00.370Z,72.81
2017-08-29T06:39:00.329Z,72.72
2017-08-29T06:40:00.277Z,73.01
2017-08-29T06:41:00.332Z,73.30
2017-08-29T06:42:00.318Z,72.53
2017-08-29T06:43:00.254Z,72.63
2017-08-29T06:44:00.261Z,72.33
2017-08-29T06:45:00.318Z,72.81
2017-08-29T06:46:00.280Z,72.66
2017-08-29T06:47:00.197Z,73.20
2017-08-29T06:48:00.207Z,72.72
2017-08-29T06:49:00.244Z,73.68
2017-08-29T06:50:00.206Z,72.18
2017-08-29T06:51:00.170Z,71.79
2017-08-29T06:52:00.156Z,72.18
2017-08-29T06:53:00.163Z,72.75
2017-08-29T06:54:00.134Z,73.33
2017-08-29T06:55:00.138Z,73.05
2017-08-29T06:56:00.124Z,73.14
2017-08-29T06:57:00.081Z,72.85
2017-08-29T06:58:00.074Z,72.95
2017-08-29T06:59:00.128Z,72.75
2017-08-29T07:00:00.053Z,73.24
2017-08-29T07:01:00.049Z,73.14
2017-08-29T07:02:00.068Z,72.85
2017-08-29T07:03:00.057Z,72.85
2017-08-29T07:03:59.987Z,73.14
2017-08-29T07:04:59.994Z,72.37
2017-08-29T07:05:59.996Z,72.75
2017-08-29T07:07:00.004Z,71.70
2017-08-29T07:07:59.978Z,72.37
2017-08-29T07:08:59.932Z,72.27
2017-08-29T07:09:59.927Z,72.85
2017-08-29T07:10:59.971Z,72.18
2017-08-29T07:11:59.997Z,72.99
2017-08-29T07:12:59.899Z,73.57
2017-08-29T07:13:59.889Z,73.91
2017-08-29T07:14:59.917Z,73.27
2017-08-29T07:15:59.860Z,73.85
2017-08-29T07:16:59.856Z,72.50
2017-08-29T07:17:59.905Z,72.99
2017-08-29T07:18:59.835Z,72.89
2017-08-29T07:19:59.796Z,72.89
2017-08-29T07:20:59.797Z,72.60
2017-08-29T07:21:59.796Z,72.60
2017-08-29T07:22:59.786Z,72.99
2017-08-29T07:23:59.802Z,72.99
2017-08-29T07:24:59.796Z,72.41
2017-08-29T07:25:59.726Z,73.27
2017-08-29T07:26:59.736Z,73.66
2017-08-29T07:27:59.757Z,73.47
2017-08-29T07:28:59.712Z,73.37
2017-08-29T07:29:59.690Z,73.18
2017-08-29T07:30:59.675Z,72.79
2017-08-29T07:31:59.732Z,72.83
2017-08-29T07:32:59.706Z,72.83
2017-08-29T07:33:59.691Z,72.54
2017-08-29T07:34:59.701Z,72.73
2017-08-29T07:35:59.708Z,72.63
2017-08-29T07:36:59.666Z,73.02
2017-08-29T07:37:59.676Z,72.73
2017-08-29T07:38:59.613Z,72.15
2017-08-29T07:39:59.598Z,72.06
2017-08-29T07:40:59.598Z,72.63
2017-08-29T07:41:59.582Z,73.02
2017-08-29T07:42:59.614Z,73.11
2017-08-29T07:43:59.544Z,72.44
2017-08-29T07:44:59.519Z,72.06
2017-08-29T07:45:59.587Z,71.77
2017-08-29T07:46:59.505Z,72.54
2017-08-29T07:47:59.493Z,71.77
2017-08-29T07:48:59.563Z,71.86
2017-08-29T07:49:59.515Z,70.70
2017-08-29T07:50:59.441Z,71.51
2017-08-29T07:51:59.445Z,72.48
2017-08-29T07:52:59.446Z,72.09
2017-08-29T07:53:59.422Z,71.51
2017-08-29T07:54:59.483Z,72.00
2017-08-29T07:55:59.428Z,72.67
2017-08-29T07:56:59.410Z,71.51
2017-08-29T07:57:59.406Z,71.51
2017-08-29T07:58:59.383Z,71.42
2017-08-29T07:59:59.364Z,71.51
2017-08-29T08:00:59.333Z,71.61
2017-08-29T08:01:59.339Z,71.51
2017-08-29T08:02:59.370Z,72.09
2017-08-29T08:03:59.326Z,71.61
2017-08-29T08:04:59.291Z,70.94
2017-08-29T08:05:59.355Z,70.26
2017-08-29T08:06:59.351Z,70.00
2017-08-29T08:07:59.246Z,69.97
2017-08-29T08:08:59.240Z,70.00
2017-08-29T08:09:59.276Z,69.71
2017-08-29T08:10:59.288Z,70.00
2017-08-29T08:11:59.282Z,70.58
2017-08-29T08:12:59.311Z,70.20
2017-08-29T08:13:59.255Z,70.10
2017-08-29T08:14:59.221Z,70.29
2017-08-29T08:15:59.164Z,69.62
2017-08-29T08:16:59.157Z,69.52
2017-08-29T08:17:59.148Z,70.10
2017-08-29T08:18:59.155Z,70.68
2017-08-29T08:19:59.183Z,69.74
2017-08-29T08:20:59.154Z,69.62
2017-08-29T08:21:59.167Z,70.14
2017-08-29T08:22:59.097Z,70.23
2017-08-29T08:23:59.090Z,70.90
2017-08-29T08:24:59.115Z,70.81
2017-08-29T08:25:59.097Z,70.04
2017-08-29T08:26:59.090Z,68.78
2017-08-29T08:27:59.045Z,68.40
2017-08-29T08:28:59.096Z,67.91
2017-08-29T08:29:59.060Z,68.10
2017-08-29T08:30:59.025Z,68.98
2017-08-29T08:31:59.074Z,68.40
2017-08-29T08:32:59.016Z,68.20
2017-08-29T08:33:59.041Z,68.33
2017-08-29T08:34:59.004Z,69.94
2017-08-29T08:35:58.984Z,70.07
2017-08-29T08:36:58.994Z,68.30
2017-08-29T08:37:58.953Z,68.72
2017-08-29T08:38:58.956Z,68.52
2017-08-29T08:39:58.892Z,67.94
2017-08-29T08:40:58.899Z,68.52
2017-08-29T08:41:58.991Z,68.52
2017-08-29T08:42:58.893Z,69.40
2017-08-29T08:43:58.902Z,67.75
2017-08-29T08:44:58.867Z,67.75
2017-08-29T08:45:58.861Z,69.30
2017-08-29T08:46:58.915Z,66.98
2017-08-29T08:47:58.858Z,66.01
2017-08-29T08:48:58.842Z,66.30
2017-08-29T08:49:58.797Z,66.69
2017-08-29T08:50:58.860Z,67.46
2017-08-29T08:51:58.825Z,67.69
2017-08-29T08:52:58.769Z,66.63
2017-08-29T08:53:58.868Z,66.91
2017-08-29T08:54:58.757Z,68.75
2017-08-29T08:55:58.778Z,69.24
2017-08-29T08:56:58.727Z,69.33
2017-08-29T08:57:58.756Z,68.46
2017-08-29T08:58:58.754Z,67.30
2017-08-29T08:59:58.724Z,68.27
2017-08-29T09:00:58.702Z,65.95
2017-08-29T09:01:58.715Z,65.75
2017-08-29T09:02:58.766Z,65.56
2017-08-29T09:03:58.668Z,65.27
2017-08-29T09:04:58.656Z,65.69
2017-08-29T09:05:58.750Z,65.98
2017-08-29T09:06:58.698Z,66.17
2017-08-29T09:07:58.676Z,65.59
2017-08-29T09:08:58.607Z,65.69
2017-08-29T09:09:58.612Z,65.79
2017-08-29T09:10:58.616Z,65.59
2017-08-29T09:11:58.644Z,65.30
2017-08-29T09:12:58.634Z,64.72
2017-08-29T09:13:58.592Z,64.72
2017-08-29T09:14:58.569Z,66.66
2017-08-29T09:15:58.553Z,65.59
2017-08-29T09:16:58.575Z,65.79
2017-08-29T09:17:58.495Z,65.05
2017-08-29T09:18:58.532Z,64.95
2017-08-29T09:19:58.513Z,65.14
2017-08-29T09:20:58.522Z,64.07
2017-08-29T09:21:58.483Z,64.37
2017-08-29T09:22:58.547Z,65.24
2017-08-29T09:23:58.548Z,65.14
2017-08-29T09:24:58.490Z,65.14
2017-08-29T09:25:58.417Z,64.40
2017-08-29T09:26:58.423Z,66.24
2017-08-29T09:27:58.473Z,64.40
2017-08-29T09:28:58.463Z,64.11
2017-08-29T09:29:58.393Z,65.08
2017-08-29T09:30:58.426Z,66.24
2017-08-29T09:31:58.401Z,67.02
2017-08-29T09:32:58.385Z,66.92
2017-08-29T09:33:58.397Z,65.17
2017-08-29T09:34:58.364Z,63.62
2017-08-29T09:35:58.364Z,63.92
2017-08-29T09:36:58.355Z,63.82
2017-08-29T09:37:58.313Z,63.75
2017-08-29T09:38:58.333Z,65.79
2017-08-29T09:39:58.336Z,65.59
2017-08-29T09:40:58.286Z,65.89
2017-08-29T09:41:58.288Z,64.82
2017-08-29T09:42:58.266Z,65.20
2017-08-29T09:43:58.262Z,64.34
2017-08-29T09:44:58.301Z,65.01
2017-08-29T09:45:58.242Z,65.82
2017-08-29T09:46:58.297Z,65.53
2017-08-29T09:47:58.209Z,65.82
2017-08-29T09:48:58.221Z,65.63
2017-08-29T09:49:58.250Z,65.05
2017-08-29T09:50:58.234Z,65.43
2017-08-29T09:51:58.217Z,65.63
2017-08-29T09:52:58.243Z,64.95
2017-08-29T09:53:58.210Z,62.33
2017-08-29T09:54:58.201Z,62.62
2017-08-29T09:55:58.181Z,62.55
2017-08-29T09:56:58.177Z,64.01
2017-08-29T09:57:58.147Z,65.75
2017-08-29T09:58:58.223Z,63.43
2017-08-29T09:59:58.119Z,62.65
2017-08-29T10:00:58.103Z,62.65
2017-08-29T10:01:58.106Z,61.78
2017-08-29T10:02:58.155Z,62.01
2017-08-29T10:03:58.062Z,62.88
2017-08-29T10:04:58.154Z,63.17
2017-08-29T10:05:58.036Z,61.71
2017-08-29T10:06:58.071Z,63.46
2017-08-29T10:07:58.087Z,65.01
2017-08-29T10:08:58.017Z,65.05
2017-08-29T10:09:58.017Z,64.85
2017-08-29T10:10:57.994Z,65.63
2017-08-29T10:11:58.074Z,63.39
2017-08-29T10:12:58.000Z,63.39
2017-08-29T10:13:57.968Z,61.45
2017-08-29T10:14:57.988Z,64.11
2017-08-29T10:15:57.924Z,64.30
2017-08-29T10:16:58.010Z,60.31
2017-08-29T10:17:57.981Z,59.34
2017-08-29T10:18:57.936Z,63.26
2017-08-29T10:19:57.894Z,63.17
2017-08-29T10:20:57.917Z,62.68
2017-08-29T10:21:57.920Z,61.02
2017-08-29T10:22:57.897Z,61.80
2017-08-29T10:23:57.895Z,61.80
2017-08-29T10:24:57.933Z,62.58
2017-08-29T10:25:57.866Z,62.13
2017-08-29T10:26:57.847Z,61.74
2017-08-29T10:27:57.837Z,58.92
2017-08-29T10:28:57.900Z,60.08
2017-08-29T10:29:57.814Z,61.08
2017-08-29T10:30:57.798Z,59.63
2017-08-29T10:31:57.817Z,61.57
2017-08-29T10:32:57.759Z,60.41
2017-08-29T10:33:57.795Z,60.14
2017-08-29T10:34:57.802Z,58.69
2017-08-29T10:35:57.756Z,58.10
2017-08-29T10:36:57.801Z,57.61
2017-08-29T10:37:57.749Z,58.22
2017-08-29T10:38:57.785Z,58.81
2017-08-29T10:39:57.729Z,60.27
2017-08-29T10:40:57.713Z,60.36
2017-08-29T10:41:57.699Z,59.42
2017-08-29T10:42:57.704Z,57.28
2017-08-29T10:43:57.701Z,56.99
2017-08-29T10:44:57.727Z,54.94
2017-08-29T10:45:57.672Z,54.85
2017-08-29T10:46:57.659Z,58.09
2017-08-29T10:47:57.663Z,59.45
2017-08-29T10:48:57.662Z,55.07
2017-08-29T10:49:57.646Z,56.07
2017-08-29T10:50:57.621Z,53.34
2017-08-29T10:51:57.720Z,51.29
2017-08-29T10:52:57.636Z,53.14
2017-08-29T10:53:57.596Z,51.41
2017-08-29T10:54:57.608Z,54.24
2017-08-29T10:55:57.579Z,55.61
2017-08-29T10:56:57.631Z,53.46
2017-08-29T10:57:57.586Z,56.02
2017-08-29T10:58:57.576Z,50.36
2017-08-29T10:59:57.567Z,53.97
2017-08-29T11:00:57.573Z,50.78
2017-08-29T11:01:57.598Z,48.83
2017-08-29T11:02:57.621Z,49.41
2017-08-29T11:03:57.550Z,50.39
2017-08-29T11:04:57.533Z,54.42
2017-08-29T11:05:57.569Z,54.22
2017-08-29T11:06:57.611Z,52.56
2017-08-29T11:07:57.556Z,52.37
2017-08-29T11:08:57.477Z,53.83
2017-08-29T11:09:57.467Z,49.65
2017-08-29T11:10:57.512Z,48.28
2017-08-29T11:11:57.499Z,50.54
2017-08-29T11:12:57.492Z,51.15
2017-08-29T11:13:57.457Z,51.54
2017-08-29T11:14:57.505Z,50.76
2017-08-29T11:15:57.463Z,50.56
2017-08-29T11:16:57.412Z,50.59
2017-08-29T11:17:57.444Z,50.78
2017-08-29T11:18:57.477Z,49.99
2017-08-29T11:19:57.444Z,45.69
2017-08-29T11:20:57.399Z,48.72
2017-08-29T11:21:57.397Z,54.01
2017-08-29T11:22:57.379Z,50.12
2017-08-29T11:23:57.372Z,50.12
2017-08-29T11:24:57.382Z,47.38
2017-08-29T11:25:57.425Z,46.30
2017-08-29T11:26:57.409Z,49.07
2017-08-29T11:27:57.352Z,50.44
2017-08-29T11:28:57.342Z,47.11
2017-08-29T11:29:57.354Z,47.69
2017-08-29T11:30:57.358Z,47.69
2017-08-29T11:31:57.316Z,46.81
2017-08-29T11:32:57.304Z,48.70
2017-08-29T11:33:57.335Z,45.07
2017-08-29T11:34:57.348Z,47.23
2017-08-29T11:35:57.297Z,47.16
2017-08-29T11:36:57.313Z,48.52
2017-08-29T11:37:57.278Z,47.55
2017-08-29T11:38:57.290Z,43.82
2017-08-29T11:39:57.243Z,47.86
2017-08-29T11:40:57.275Z,42.66
2017-08-29T11:41:57.239Z,44.04
2017-08-29T11:42:57.319Z,42.08
2017-08-29T11:43:57.265Z,43.76
2017-08-29T11:44:57.295Z,44.16
2017-08-29T11:45:57.317Z,40.25
2017-08-29T11:46:57.276Z,38.80
2017-08-29T11:47:57.301Z,40.96
2017-08-29T11:48:57.192Z,43.02
2017-08-29T11:49:57.230Z,41.06
2017-08-29T11:50:57.223Z,39.11
2017-08-29T11:51:57.186Z,40.88
2017-08-29T11:52:57.228Z,42.25
2017-08-29T11:53:57.177Z,44.22
2017-08-29T11:54:57.184Z,44.22
2017-08-29T11:55:57.244Z,39.42
2017-08-29T11:56:57.159Z,38.84
2017-08-29T11:57:57.146Z,40.41
2017-08-29T11:58:57.180Z,40.90
2017-08-29T11:59:57.205Z,41.61
2017-08-29T12:00:57.208Z,37.97
2017-08-29T12:01:57.188Z,38.07
2017-08-29T12:02:57.178Z,41.63
2017-08-29T12:03:57.199Z,34.15
2017-08-29T12:04:57.124Z,35.33
2017-08-29T12:05:57.159Z,33.95
2017-08-29T12:06:57.098Z,32.67
2017-08-29T12:07:57.237Z,32.98
2017-08-29T12:08:57.115Z,35.25
2017-08-29T12:09:57.092Z,35.44
2017-08-29T12:10:57.094Z,36.04
2017-08-29T12:11:57.114Z,33.67
2017-08-29T12:12:57.149Z,30.91
2017-08-29T12:13:57.088Z,31.72
2017-08-29T12:14:57.079Z,31.13
2017-08-29T12:15:57.095Z,32.60
2017-08-29T12:16:57.095Z,36.15
2017-08-29T12:17:57.162Z,35.07
2017-08-29T12:18:57.067Z,32.41
2017-08-29T12:19:57.114Z,34.58
2017-08-29T12:20:57.217Z,33.89
2017-08-29T12:21:57.096Z,35.46
2017-08-29T12:22:57.097Z,35.07
2017-08-29T12:23:57.114Z,33.51
2017-08-29T12:24:57.028Z,29.94
2017-08-29T12:25:57.092Z,29.07
2017-08-29T12:26:56.999Z,30.06
2017-08-29T12:27:57.024Z,30.16
2017-08-29T12:28:57.037Z,33.01
2017-08-29T12:29:57.018Z,30.17
2017-08-29T12:30:57.028Z,31.14
2017-08-29T12:31:57.017Z,34.59
2017-08-29T12:32:57.006Z,33.03
2017-08-29T12:33:56.979Z,31.45
2017-08-29T12:34:57.032Z,33.62
2017-08-29T12:35:57.035Z,31.35
2017-08-29T12:36:56.942Z,34.41
2017-08-29T12:37:56.956Z,34.01
2017-08-29T12:38:57.016Z,33.62
2017-08-29T12:39:56.982Z,32.64
2017-08-29T12:40:56.946Z,30.57
2017-08-29T12:41:56.962Z,30.76
2017-08-29T12:42:56.978Z,28.88
2017-08-29T12:43:56.960Z,29.86
2017-08-29T12:44:56.924Z,34.39
2017-08-29T12:45:56.911Z,30.07
2017-08-29T12:46:56.917Z,31.35
2017-08-29T12:47:56.916Z,28.30
2017-08-29T12:48:56.919Z,32.56
2017-08-29T12:49:56.911Z,30.68
2017-08-29T12:50:56.911Z,28.41
2017-08-29T12:51:57.021Z,31.07